sensor_id;sensor_type;location;lat;lon;timestamp;P1;durP1;ratioP1;P2;durP2;ratioP2
46613;SDS011;32338;50.430;6.806;2023-02-28T00:01:22;6.13;;;1.20;;
46613;SDS011;32338;50.430;6.806;2023-02-28T00:03:50;2.47;;;1.10;;
46613;SDS011;32338;50.430;6.806;2023-02-28T00:06:17;2.45;;;1.00;;
46613;SDS011;32338;50.430;6.806;2023-02-28T00:08:44;1.92;;;1.13;;
46613;SDS011;32338;50.430;6.806;2023-02-28T00:11:11;2.00;;;1.20;;
46613;SDS011;32338;50.430;6.806;2023-02-28T00:13:41;2.35;;;1.05;;
46613;SDS011;32338;50.430;6.806;2023-02-28T00:16:12;2.15;;;1.55;;
46613;SDS011;32338;50.430;6.806;2023-02-28T00:18:40;6.25;;;1.50;;
46613;SDS011;32338;50.430;6.806;2023-02-28T00:21:09;1.73;;;1.10;;
46613;SDS011;32338;50.430;6.806;2023-02-28T00:23:35;2.92;;;1.10;;
46613;SDS011;32338;50.430;6.806;2023-02-28T00:26:02;2.65;;;1.73;;
46613;SDS011;32338;50.430;6.806;2023-02-28T00:28:29;3.10;;;1.50;;
46613;SDS011;32338;50.430;6.806;2023-02-28T00:30:56;3.10;;;1.33;;
46613;SDS011;32338;50.430;6.806;2023-02-28T00:33:24;1.88;;;1.30;;
46613;SDS011;32338;50.430;6.806;2023-02-28T00:35:51;3.83;;;1.33;;
46613;SDS011;32338;50.430;6.806;2023-02-28T00:38:19;5.22;;;1.73;;
46613;SDS011;32338;50.430;6.806;2023-02-28T00:40:46;2.95;;;1.60;;
46613;SDS011;32338;50.430;6.806;2023-02-28T00:43:13;3.08;;;1.30;;
46613;SDS011;32338;50.430;6.806;2023-02-28T00:45:39;2.88;;;1.27;;
46613;SDS011;32338;50.430;6.806;2023-02-28T00:48:06;1.60;;;1.45;;
46613;SDS011;32338;50.430;6.806;2023-02-28T00:50:32;4.43;;;1.55;;
46613;SDS011;32338;50.430;6.806;2023-02-28T00:52:59;4.05;;;1.48;;
46613;SDS011;32338;50.430;6.806;2023-02-28T00:55:27;3.33;;;1.48;;
46613;SDS011;32338;50.430;6.806;2023-02-28T00:57:53;4.10;;;1.48;;
46613;SDS011;32338;50.430;6.806;2023-02-28T01:00:20;2.85;;;1.77;;
46613;SDS011;32338;50.430;6.806;2023-02-28T01:02:47;3.17;;;1.70;;
46613;SDS011;32338;50.430;6.806;2023-02-28T01:05:14;3.05;;;1.83;;
46613;SDS011;32338;50.430;6.806;2023-02-28T01:07:40;4.57;;;1.70;;
46613;SDS011;32338;50.430;6.806;2023-02-28T01:10:07;2.13;;;1.60;;
46613;SDS011;32338;50.430;6.806;2023-02-28T01:12:36;4.63;;;1.40;;
46613;SDS011;32338;50.430;6.806;2023-02-28T01:15:03;2.22;;;1.60;;
46613;SDS011;32338;50.430;6.806;2023-02-28T01:17:30;2.65;;;1.88;;
46613;SDS011;32338;50.430;6.806;2023-02-28T01:19:57;3.78;;;1.85;;
46613;SDS011;32338;50.430;6.806;2023-02-28T01:22:23;3.92;;;1.67;;
46613;SDS011;32338;50.430;6.806;2023-02-28T01:24:50;6.53;;;1.83;;
46613;SDS011;32338;50.430;6.806;2023-02-28T01:27:17;3.25;;;1.40;;
46613;SDS011;32338;50.430;6.806;2023-02-28T01:29:45;3.42;;;1.65;;
46613;SDS011;32338;50.430;6.806;2023-02-28T01:32:12;2.72;;;1.75;;
46613;SDS011;32338;50.430;6.806;2023-02-28T01:34:38;3.08;;;1.73;;
46613;SDS011;32338;50.430;6.806;2023-02-28T01:37:05;2.25;;;1.73;;
46613;SDS011;32338;50.430;6.806;2023-02-28T01:39:32;2.63;;;1.50;;
46613;SDS011;32338;50.430;6.806;2023-02-28T01:41:58;3.10;;;1.65;;
46613;SDS011;32338;50.430;6.806;2023-02-28T01:47:34;3.40;;;1.55;;
46613;SDS011;32338;50.430;6.806;2023-02-28T01:50:06;3.13;;;1.60;;
46613;SDS011;32338;50.430;6.806;2023-02-28T01:52:36;2.95;;;1.88;;
46613;SDS011;32338;50.430;6.806;2023-02-28T01:55:04;4.65;;;1.50;;
46613;SDS011;32338;50.430;6.806;2023-02-28T01:57:34;4.05;;;1.73;;
46613;SDS011;32338;50.430;6.806;2023-02-28T02:00:06;4.97;;;2.17;;
46613;SDS011;32338;50.430;6.806;2023-02-28T02:02:35;3.15;;;1.52;;
46613;SDS011;32338;50.430;6.806;2023-02-28T02:05:04;3.03;;;1.40;;
46613;SDS011;32338;50.430;6.806;2023-02-28T02:07:33;3.40;;;1.58;;
46613;SDS011;32338;50.430;6.806;2023-02-28T02:10:04;2.08;;;1.70;;
46613;SDS011;32338;50.430;6.806;2023-02-28T02:12:37;5.03;;;1.48;;
46613;SDS011;32338;50.430;6.806;2023-02-28T02:15:24;6.57;;;1.60;;
46613;SDS011;32338;50.430;6.806;2023-02-28T02:17:57;1.40;;;1.10;;
46613;SDS011;32338;50.430;6.806;2023-02-28T02:26:49;6.05;;;1.70;;
46613;SDS011;32338;50.430;6.806;2023-02-28T02:29:31;1.98;;;1.40;;
46613;SDS011;32338;50.430;6.806;2023-02-28T02:32:25;3.97;;;1.90;;
46613;SDS011;32338;50.430;6.806;2023-02-28T02:35:12;4.18;;;1.52;;
46613;SDS011;32338;50.430;6.806;2023-02-28T02:37:46;2.92;;;1.50;;
46613;SDS011;32338;50.430;6.806;2023-02-28T02:40:17;4.47;;;1.70;;
46613;SDS011;32338;50.430;6.806;2023-02-28T02:42:47;4.20;;;1.65;;
46613;SDS011;32338;50.430;6.806;2023-02-28T02:45:23;2.83;;;1.60;;
46613;SDS011;32338;50.430;6.806;2023-02-28T02:47:52;2.35;;;1.60;;
46613;SDS011;32338;50.430;6.806;2023-02-28T02:50:23;2.42;;;1.73;;
46613;SDS011;32338;50.430;6.806;2023-02-28T02:52:56;2.22;;;1.30;;
46613;SDS011;32338;50.430;6.806;2023-02-28T02:55:26;3.53;;;1.63;;
46613;SDS011;32338;50.430;6.806;2023-02-28T03:17:49;4.35;;;1.88;;
46613;SDS011;32338;50.430;6.806;2023-02-28T03:20:37;3.10;;;1.60;;
46613;SDS011;32338;50.430;6.806;2023-02-28T03:23:15;6.95;;;2.47;;
46613;SDS011;32338;50.430;6.806;2023-02-28T03:25:52;4.18;;;1.70;;
46613;SDS011;32338;50.430;6.806;2023-02-28T03:28:25;5.18;;;1.95;;
46613;SDS011;32338;50.430;6.806;2023-02-28T06:02:13;3.83;;;2.13;;
46613;SDS011;32338;50.430;6.806;2023-02-28T06:04:41;4.20;;;2.08;;
46613;SDS011;32338;50.430;6.806;2023-02-28T06:07:08;2.30;;;2.10;;
46613;SDS011;32338;50.430;6.806;2023-02-28T06:09:35;4.53;;;1.80;;
46613;SDS011;32338;50.430;6.806;2023-02-28T06:12:03;2.47;;;1.77;;
46613;SDS011;32338;50.430;6.806;2023-02-28T06:14:32;4.18;;;2.30;;
46613;SDS011;32338;50.430;6.806;2023-02-28T06:17:00;7.97;;;3.45;;
46613;SDS011;32338;50.430;6.806;2023-02-28T06:19:28;4.88;;;3.63;;
46613;SDS011;32338;50.430;6.806;2023-02-28T06:21:56;5.72;;;4.22;;
46613;SDS011;32338;50.430;6.806;2023-02-28T06:24:24;4.65;;;3.10;;
46613;SDS011;32338;50.430;6.806;2023-02-28T06:26:52;5.55;;;3.92;;
46613;SDS011;32338;50.430;6.806;2023-02-28T06:29:19;6.75;;;3.67;;
46613;SDS011;32338;50.430;6.806;2023-02-28T06:31:46;5.93;;;2.55;;
46613;SDS011;32338;50.430;6.806;2023-02-28T06:34:13;4.30;;;2.83;;
46613;SDS011;32338;50.430;6.806;2023-02-28T06:36:42;3.08;;;2.20;;
46613;SDS011;32338;50.430;6.806;2023-02-28T06:39:09;3.45;;;1.77;;
46613;SDS011;32338;50.430;6.806;2023-02-28T06:41:35;3.35;;;1.98;;
46613;SDS011;32338;50.430;6.806;2023-02-28T06:44:03;2.28;;;2.08;;
46613;SDS011;32338;50.430;6.806;2023-02-28T06:46:30;3.47;;;2.22;;
46613;SDS011;32338;50.430;6.806;2023-02-28T06:48:57;6.78;;;2.90;;
46613;SDS011;32338;50.430;6.806;2023-02-28T06:51:24;3.28;;;2.00;;
46613;SDS011;32338;50.430;6.806;2023-02-28T06:53:53;3.83;;;2.30;;
46613;SDS011;32338;50.430;6.806;2023-02-28T06:56:20;2.45;;;2.00;;
46613;SDS011;32338;50.430;6.806;2023-02-28T06:58:47;3.20;;;2.35;;
46613;SDS011;32338;50.430;6.806;2023-02-28T07:01:14;6.75;;;2.30;;
46613;SDS011;32338;50.430;6.806;2023-02-28T07:03:41;5.22;;;2.47;;
46613;SDS011;32338;50.430;6.806;2023-02-28T07:06:08;3.80;;;2.30;;
46613;SDS011;32338;50.430;6.806;2023-02-28T07:08:35;3.42;;;2.38;;
46613;SDS011;32338;50.430;6.806;2023-02-28T07:11:03;4.35;;;2.55;;
46613;SDS011;32338;50.430;6.806;2023-02-28T07:13:30;2.95;;;2.45;;
46613;SDS011;32338;50.430;6.806;2023-02-28T07:15:58;2.60;;;2.40;;
46613;SDS011;32338;50.430;6.806;2023-02-28T07:18:26;4.18;;;2.95;;
46613;SDS011;32338;50.430;6.806;2023-02-28T07:20:53;4.13;;;2.78;;
46613;SDS011;32338;50.430;6.806;2023-02-28T07:23:21;4.18;;;2.90;;
46613;SDS011;32338;50.430;6.806;2023-02-28T07:25:48;4.90;;;2.38;;
46613;SDS011;32338;50.430;6.806;2023-02-28T07:28:17;4.03;;;2.35;;
46613;SDS011;32338;50.430;6.806;2023-02-28T07:30:44;5.00;;;3.67;;
46613;SDS011;32338;50.430;6.806;2023-02-28T07:33:10;3.47;;;3.17;;
46613;SDS011;32338;50.430;6.806;2023-02-28T07:35:37;4.18;;;3.20;;
46613;SDS011;32338;50.430;6.806;2023-02-28T07:38:04;4.50;;;3.13;;
46613;SDS011;32338;50.430;6.806;2023-02-28T07:40:32;5.13;;;3.10;;
46613;SDS011;32338;50.430;6.806;2023-02-28T07:42:59;6.85;;;3.42;;
46613;SDS011;32338;50.430;6.806;2023-02-28T07:45:28;5.53;;;3.33;;
46613;SDS011;32338;50.430;6.806;2023-02-28T07:47:56;6.25;;;3.80;;
46613;SDS011;32338;50.430;6.806;2023-02-28T07:50:23;3.92;;;3.28;;
46613;SDS011;32338;50.430;6.806;2023-02-28T07:52:50;4.28;;;3.35;;
46613;SDS011;32338;50.430;6.806;2023-02-28T07:55:17;3.85;;;3.25;;
46613;SDS011;32338;50.430;6.806;2023-02-28T07:57:43;4.00;;;3.13;;
46613;SDS011;32338;50.430;6.806;2023-02-28T08:00:11;3.45;;;3.15;;
46613;SDS011;32338;50.430;6.806;2023-02-28T08:02:40;3.88;;;2.83;;
46613;SDS011;32338;50.430;6.806;2023-02-28T08:05:07;4.90;;;3.20;;
46613;SDS011;32338;50.430;6.806;2023-02-28T08:07:33;6.25;;;3.03;;
46613;SDS011;32338;50.430;6.806;2023-02-28T08:10:00;3.72;;;2.70;;
46613;SDS011;32338;50.430;6.806;2023-02-28T08:12:27;4.72;;;2.45;;
46613;SDS011;32338;50.430;6.806;2023-02-28T08:14:53;4.95;;;2.90;;
46613;SDS011;32338;50.430;6.806;2023-02-28T08:17:20;7.22;;;2.60;;
46613;SDS011;32338;50.430;6.806;2023-02-28T08:19:48;3.83;;;2.58;;
46613;SDS011;32338;50.430;6.806;2023-02-28T08:22:15;5.53;;;2.25;;
46613;SDS011;32338;50.430;6.806;2023-02-28T08:24:42;4.30;;;2.35;;
46613;SDS011;32338;50.430;6.806;2023-02-28T08:27:08;3.05;;;2.58;;
46613;SDS011;32338;50.430;6.806;2023-02-28T08:29:36;3.63;;;2.47;;
46613;SDS011;32338;50.430;6.806;2023-02-28T08:32:03;2.80;;;2.22;;
46613;SDS011;32338;50.430;6.806;2023-02-28T08:34:30;2.75;;;2.13;;
46613;SDS011;32338;50.430;6.806;2023-02-28T08:36:58;4.50;;;2.45;;
46613;SDS011;32338;50.430;6.806;2023-02-28T08:39:25;3.03;;;2.45;;
46613;SDS011;32338;50.430;6.806;2023-02-28T08:41:52;4.88;;;2.45;;
46613;SDS011;32338;50.430;6.806;2023-02-28T08:44:18;2.55;;;2.10;;
46613;SDS011;32338;50.430;6.806;2023-02-28T08:46:45;6.07;;;2.60;;
46613;SDS011;32338;50.430;6.806;2023-02-28T08:49:12;2.45;;;2.00;;
46613;SDS011;32338;50.430;6.806;2023-02-28T08:51:39;3.15;;;2.28;;
46613;SDS011;32338;50.430;6.806;2023-02-28T08:54:10;3.65;;;2.13;;
46613;SDS011;32338;50.430;6.806;2023-02-28T08:56:38;3.25;;;2.20;;
46613;SDS011;32338;50.430;6.806;2023-02-28T08:59:05;3.72;;;2.75;;
46613;SDS011;32338;50.430;6.806;2023-02-28T09:01:32;3.13;;;2.30;;
46613;SDS011;32338;50.430;6.806;2023-02-28T09:03:59;4.50;;;2.05;;
46613;SDS011;32338;50.430;6.806;2023-02-28T09:06:27;2.65;;;1.90;;
46613;SDS011;32338;50.430;6.806;2023-02-28T09:08:56;2.83;;;1.63;;
46613;SDS011;32338;50.430;6.806;2023-02-28T09:11:26;2.65;;;2.20;;
46613;SDS011;32338;50.430;6.806;2023-02-28T09:13:53;1.90;;;1.65;;
46613;SDS011;32338;50.430;6.806;2023-02-28T09:16:21;5.00;;;2.00;;
46613;SDS011;32338;50.430;6.806;2023-02-28T09:18:48;2.30;;;1.90;;
46613;SDS011;32338;50.430;6.806;2023-02-28T09:21:17;2.35;;;1.90;;
46613;SDS011;32338;50.430;6.806;2023-02-28T09:23:46;3.33;;;1.70;;
46613;SDS011;32338;50.430;6.806;2023-02-28T09:26:13;2.38;;;1.50;;
46613;SDS011;32338;50.430;6.806;2023-02-28T09:28:42;2.80;;;1.70;;
46613;SDS011;32338;50.430;6.806;2023-02-28T09:31:11;2.42;;;1.48;;
46613;SDS011;32338;50.430;6.806;2023-02-28T09:33:39;2.25;;;1.90;;
46613;SDS011;32338;50.430;6.806;2023-02-28T09:36:06;2.70;;;1.52;;
46613;SDS011;32338;50.430;6.806;2023-02-28T09:38:33;2.80;;;1.60;;
46613;SDS011;32338;50.430;6.806;2023-02-28T09:41:01;3.28;;;1.55;;
46613;SDS011;32338;50.430;6.806;2023-02-28T09:43:32;2.95;;;1.77;;
46613;SDS011;32338;50.430;6.806;2023-02-28T09:46:05;1.98;;;1.55;;
46613;SDS011;32338;50.430;6.806;2023-02-28T09:48:41;1.85;;;1.50;;
46613;SDS011;32338;50.430;6.806;2023-02-28T09:51:12;2.15;;;1.70;;
46613;SDS011;32338;50.430;6.806;2023-02-28T09:53:50;2.80;;;1.40;;
46613;SDS011;32338;50.430;6.806;2023-02-28T09:56:18;1.63;;;1.40;;
46613;SDS011;32338;50.430;6.806;2023-02-28T09:58:52;2.23;;;1.50;;
46613;SDS011;32338;50.430;6.806;2023-02-28T10:01:24;3.25;;;1.55;;
46613;SDS011;32338;50.430;6.806;2023-02-28T10:04:03;3.70;;;1.45;;
46613;SDS011;32338;50.430;6.806;2023-02-28T10:06:36;2.33;;;1.60;;
46613;SDS011;32338;50.430;6.806;2023-02-28T10:09:11;4.35;;;1.88;;
46613;SDS011;32338;50.430;6.806;2023-02-28T10:11:41;2.70;;;1.88;;
46613;SDS011;32338;50.430;6.806;2023-02-28T10:14:11;2.45;;;1.52;;
46613;SDS011;32338;50.430;6.806;2023-02-28T10:16:43;2.85;;;1.60;;
46613;SDS011;32338;50.430;6.806;2023-02-28T10:21:47;4.15;;;1.52;;
46613;SDS011;32338;50.430;6.806;2023-02-28T10:24:23;3.63;;;1.55;;
46613;SDS011;32338;50.430;6.806;2023-02-28T10:29:26;3.03;;;1.70;;
46613;SDS011;32338;50.430;6.806;2023-02-28T10:31:56;2.38;;;1.77;;
46613;SDS011;32338;50.430;6.806;2023-02-28T10:34:22;1.88;;;1.73;;
46613;SDS011;32338;50.430;6.806;2023-02-28T10:36:50;2.67;;;2.10;;
46613;SDS011;32338;50.430;6.806;2023-02-28T10:42:04;3.50;;;2.10;;
46613;SDS011;32338;50.430;6.806;2023-02-28T10:44:31;3.65;;;2.25;;
46613;SDS011;32338;50.430;6.806;2023-02-28T10:46:59;3.22;;;1.80;;
46613;SDS011;32338;50.430;6.806;2023-02-28T10:49:27;2.58;;;2.08;;
46613;SDS011;32338;50.430;6.806;2023-02-28T10:51:55;2.17;;;1.67;;
46613;SDS011;32338;50.430;6.806;2023-02-28T10:54:24;1.90;;;1.70;;
46613;SDS011;32338;50.430;6.806;2023-02-28T10:57:15;3.15;;;2.15;;
46613;SDS011;32338;50.430;6.806;2023-02-28T10:59:44;2.88;;;1.80;;
46613;SDS011;32338;50.430;6.806;2023-02-28T11:07:51;4.40;;;2.22;;
46613;SDS011;32338;50.430;6.806;2023-02-28T11:10:19;2.42;;;2.08;;
46613;SDS011;32338;50.430;6.806;2023-02-28T11:12:49;2.35;;;2.15;;
46613;SDS011;32338;50.430;6.806;2023-02-28T11:15:21;2.53;;;1.80;;
46613;SDS011;32338;50.430;6.806;2023-02-28T11:17:55;2.93;;;1.80;;
46613;SDS011;32338;50.430;6.806;2023-02-28T11:20:26;3.40;;;1.80;;
46613;SDS011;32338;50.430;6.806;2023-02-28T11:22:55;3.00;;;2.00;;
46613;SDS011;32338;50.430;6.806;2023-02-28T11:25:24;2.70;;;1.80;;
46613;SDS011;32338;50.430;6.806;2023-02-28T11:27:53;2.58;;;1.88;;
46613;SDS011;32338;50.430;6.806;2023-02-28T11:30:29;3.05;;;1.77;;
46613;SDS011;32338;50.430;6.806;2023-02-28T11:33:10;2.70;;;2.15;;
46613;SDS011;32338;50.430;6.806;2023-02-28T11:35:48;2.65;;;1.75;;
46613;SDS011;32338;50.430;6.806;2023-02-28T11:38:16;4.80;;;2.20;;
46613;SDS011;32338;50.430;6.806;2023-02-28T11:40:43;3.35;;;1.58;;
46613;SDS011;32338;50.430;6.806;2023-02-28T11:43:21;2.35;;;1.75;;
46613;SDS011;32338;50.430;6.806;2023-02-28T11:46:00;2.22;;;1.30;;
46613;SDS011;32338;50.430;6.806;2023-02-28T11:48:40;2.08;;;1.50;;
46613;SDS011;32338;50.430;6.806;2023-02-28T11:51:18;3.20;;;1.50;;
46613;SDS011;32338;50.430;6.806;2023-02-28T11:54:05;2.13;;;1.85;;
46613;SDS011;32338;50.430;6.806;2023-02-28T11:56:43;2.70;;;2.00;;
46613;SDS011;32338;50.430;6.806;2023-02-28T11:59:27;2.30;;;1.35;;
46613;SDS011;32338;50.430;6.806;2023-02-28T12:02:13;2.78;;;1.73;;
46613;SDS011;32338;50.430;6.806;2023-02-28T12:04:53;1.90;;;1.40;;
46613;SDS011;32338;50.430;6.806;2023-02-28T12:07:35;2.03;;;1.83;;
46613;SDS011;32338;50.430;6.806;2023-02-28T12:10:13;2.33;;;1.50;;
46613;SDS011;32338;50.430;6.806;2023-02-28T12:12:49;2.20;;;1.42;;
46613;SDS011;32338;50.430;6.806;2023-02-28T12:15:41;2.75;;;1.77;;
46613;SDS011;32338;50.430;6.806;2023-02-28T12:18:32;2.17;;;1.48;;
46613;SDS011;32338;50.430;6.806;2023-02-28T12:21:18;2.60;;;1.88;;
46613;SDS011;32338;50.430;6.806;2023-02-28T12:24:03;2.40;;;1.55;;
46613;SDS011;32338;50.430;6.806;2023-02-28T12:26:44;1.50;;;1.40;;
46613;SDS011;32338;50.430;6.806;2023-02-28T12:29:14;3.40;;;1.92;;
46613;SDS011;32338;50.430;6.806;2023-02-28T12:31:45;4.03;;;1.92;;
46613;SDS011;32338;50.430;6.806;2023-02-28T12:34:16;3.55;;;1.67;;
46613;SDS011;32338;50.430;6.806;2023-02-28T12:36:48;2.40;;;1.60;;
46613;SDS011;32338;50.430;6.806;2023-02-28T12:39:18;2.05;;;1.83;;
46613;SDS011;32338;50.430;6.806;2023-02-28T12:41:51;5.40;;;1.52;;
46613;SDS011;32338;50.430;6.806;2023-02-28T12:44:26;3.55;;;2.00;;
46613;SDS011;32338;50.430;6.806;2023-02-28T12:46:58;4.37;;;0.97;;
46613;SDS011;32338;50.430;6.806;2023-02-28T12:49:27;4.00;;;1.55;;
46613;SDS011;32338;50.430;6.806;2023-02-28T12:51:59;2.83;;;1.77;;
46613;SDS011;32338;50.430;6.806;2023-02-28T12:54:28;3.03;;;1.45;;
46613;SDS011;32338;50.430;6.806;2023-02-28T12:57:02;2.72;;;1.63;;
46613;SDS011;32338;50.430;6.806;2023-02-28T12:59:37;1.60;;;1.42;;
46613;SDS011;32338;50.430;6.806;2023-02-28T13:08:35;2.78;;;2.25;;
46613;SDS011;32338;50.430;6.806;2023-02-28T13:11:25;2.35;;;1.58;;
46613;SDS011;32338;50.430;6.806;2023-02-28T13:13:58;1.67;;;1.40;;
46613;SDS011;32338;50.430;6.806;2023-02-28T13:16:26;1.95;;;1.73;;
46613;SDS011;32338;50.430;6.806;2023-02-28T13:18:53;2.90;;;1.70;;
46613;SDS011;32338;50.430;6.806;2023-02-28T13:21:41;1.67;;;1.58;;
46613;SDS011;32338;50.430;6.806;2023-02-28T13:24:11;2.47;;;1.70;;
46613;SDS011;32338;50.430;6.806;2023-02-28T13:29:59;2.95;;;1.50;;
46613;SDS011;32338;50.430;6.806;2023-02-28T13:32:32;2.58;;;1.83;;
46613;SDS011;32338;50.430;6.806;2023-02-28T13:38:13;2.78;;;1.90;;
46613;SDS011;32338;50.430;6.806;2023-02-28T13:40:45;1.92;;;1.52;;
46613;SDS011;32338;50.430;6.806;2023-02-28T13:43:12;1.60;;;1.30;;
46613;SDS011;32338;50.430;6.806;2023-02-28T13:48:34;2.30;;;1.80;;
46613;SDS011;32338;50.430;6.806;2023-02-28T13:54:06;2.00;;;1.50;;
46613;SDS011;32338;50.430;6.806;2023-02-28T13:56:53;2.75;;;1.58;;
46613;SDS011;32338;50.430;6.806;2023-02-28T13:59:33;3.55;;;1.80;;
46613;SDS011;32338;50.430;6.806;2023-02-28T14:02:25;4.78;;;1.67;;
46613;SDS011;32338;50.430;6.806;2023-02-28T14:05:04;2.35;;;2.00;;
46613;SDS011;32338;50.430;6.806;2023-02-28T14:07:40;2.47;;;1.63;;
46613;SDS011;32338;50.430;6.806;2023-02-28T14:10:18;9.73;;;1.80;;
46613;SDS011;32338;50.430;6.806;2023-02-28T14:12:53;2.25;;;1.60;;
46613;SDS011;32338;50.430;6.806;2023-02-28T14:15:34;2.38;;;1.70;;
46613;SDS011;32338;50.430;6.806;2023-02-28T14:18:11;3.22;;;2.08;;
46613;SDS011;32338;50.430;6.806;2023-02-28T14:20:43;3.03;;;1.80;;
46613;SDS011;32338;50.430;6.806;2023-02-28T14:23:12;2.17;;;1.85;;
46613;SDS011;32338;50.430;6.806;2023-02-28T14:25:51;2.58;;;1.67;;
46613;SDS011;32338;50.430;6.806;2023-02-28T14:28:32;3.53;;;1.70;;
46613;SDS011;32338;50.430;6.806;2023-02-28T14:31:13;2.53;;;1.77;;
46613;SDS011;32338;50.430;6.806;2023-02-28T14:33:47;1.80;;;1.60;;
46613;SDS011;32338;50.430;6.806;2023-02-28T14:36:27;4.20;;;1.88;;
46613;SDS011;32338;50.430;6.806;2023-02-28T14:38:59;2.17;;;1.73;;
46613;SDS011;32338;50.430;6.806;2023-02-28T14:41:31;3.08;;;1.90;;
46613;SDS011;32338;50.430;6.806;2023-02-28T14:44:02;3.15;;;1.60;;
46613;SDS011;32338;50.430;6.806;2023-02-28T14:46:40;4.85;;;1.88;;
46613;SDS011;32338;50.430;6.806;2023-02-28T14:49:12;1.98;;;1.65;;
46613;SDS011;32338;50.430;6.806;2023-02-28T14:51:42;2.58;;;1.73;;
46613;SDS011;32338;50.430;6.806;2023-02-28T14:54:12;2.83;;;1.63;;
46613;SDS011;32338;50.430;6.806;2023-02-28T14:56:40;1.67;;;1.55;;
46613;SDS011;32338;50.430;6.806;2023-02-28T14:59:22;1.77;;;1.60;;
46613;SDS011;32338;50.430;6.806;2023-02-28T15:01:50;2.92;;;1.63;;
46613;SDS011;32338;50.430;6.806;2023-02-28T15:04:26;2.17;;;1.65;;
46613;SDS011;32338;50.430;6.806;2023-02-28T15:07:09;2.90;;;1.88;;
46613;SDS011;32338;50.430;6.806;2023-02-28T15:09:36;2.08;;;1.58;;
46613;SDS011;32338;50.430;6.806;2023-02-28T15:12:03;2.10;;;1.90;;
46613;SDS011;32338;50.430;6.806;2023-02-28T15:14:32;2.45;;;1.75;;
46613;SDS011;32338;50.430;6.806;2023-02-28T15:17:05;2.63;;;1.90;;
46613;SDS011;32338;50.430;6.806;2023-02-28T15:19:39;2.38;;;2.17;;
46613;SDS011;32338;50.430;6.806;2023-02-28T15:22:13;2.43;;;2.00;;
46613;SDS011;32338;50.430;6.806;2023-02-28T15:24:45;4.22;;;2.10;;
46613;SDS011;32338;50.430;6.806;2023-02-28T15:27:14;3.65;;;2.08;;
46613;SDS011;32338;50.430;6.806;2023-02-28T15:29:49;8.98;;;3.97;;
46613;SDS011;32338;50.430;6.806;2023-02-28T15:32:21;4.07;;;1.98;;
46613;SDS011;32338;50.430;6.806;2023-02-28T15:34:52;3.05;;;2.30;;
46613;SDS011;32338;50.430;6.806;2023-02-28T15:37:26;2.08;;;1.60;;
46613;SDS011;32338;50.430;6.806;2023-02-28T15:39:56;4.95;;;1.92;;
46613;SDS011;32338;50.430;6.806;2023-02-28T15:42:27;2.70;;;2.05;;
46613;SDS011;32338;50.430;6.806;2023-02-28T15:44:57;2.40;;;1.90;;
46613;SDS011;32338;50.430;6.806;2023-02-28T15:47:25;2.50;;;1.90;;
46613;SDS011;32338;50.430;6.806;2023-02-28T15:49:53;2.83;;;2.05;;
46613;SDS011;32338;50.430;6.806;2023-02-28T15:52:24;3.08;;;1.90;;
46613;SDS011;32338;50.430;6.806;2023-02-28T15:54:56;2.08;;;1.83;;
46613;SDS011;32338;50.430;6.806;2023-02-28T15:57:24;2.45;;;2.03;;
46613;SDS011;32338;50.430;6.806;2023-02-28T15:59:54;2.90;;;2.15;;
46613;SDS011;32338;50.430;6.806;2023-02-28T16:02:30;4.40;;;2.17;;
46613;SDS011;32338;50.430;6.806;2023-02-28T16:05:12;2.20;;;1.80;;
46613;SDS011;32338;50.430;6.806;2023-02-28T16:07:53;2.42;;;2.20;;
46613;SDS011;32338;50.430;6.806;2023-02-28T16:10:20;2.60;;;2.30;;
46613;SDS011;32338;50.430;6.806;2023-02-28T16:12:51;3.25;;;2.00;;
46613;SDS011;32338;50.430;6.806;2023-02-28T16:15:22;3.63;;;2.22;;
46613;SDS011;32338;50.430;6.806;2023-02-28T16:17:51;2.60;;;2.20;;
46613;SDS011;32338;50.430;6.806;2023-02-28T16:20:19;3.20;;;2.00;;
46613;SDS011;32338;50.430;6.806;2023-02-28T16:22:47;3.13;;;2.20;;
46613;SDS011;32338;50.430;6.806;2023-02-28T16:25:14;3.95;;;2.30;;
46613;SDS011;32338;50.430;6.806;2023-02-28T16:27:42;5.28;;;2.35;;
46613;SDS011;32338;50.430;6.806;2023-02-28T16:30:16;3.33;;;2.25;;
46613;SDS011;32338;50.430;6.806;2023-02-28T16:32:46;4.20;;;2.33;;
46613;SDS011;32338;50.430;6.806;2023-02-28T16:35:14;2.80;;;2.42;;
46613;SDS011;32338;50.430;6.806;2023-02-28T16:37:40;2.20;;;2.00;;
46613;SDS011;32338;50.430;6.806;2023-02-28T16:40:08;2.45;;;2.00;;
46613;SDS011;32338;50.430;6.806;2023-02-28T16:42:40;3.33;;;2.35;;
46613;SDS011;32338;50.430;6.806;2023-02-28T16:45:10;2.33;;;2.10;;
46613;SDS011;32338;50.430;6.806;2023-02-28T16:47:41;3.20;;;2.40;;
46613;SDS011;32338;50.430;6.806;2023-02-28T16:50:13;3.42;;;2.22;;
46613;SDS011;32338;50.430;6.806;2023-02-28T16:52:41;3.38;;;2.80;;
46613;SDS011;32338;50.430;6.806;2023-02-28T16:55:08;4.82;;;2.53;;
46613;SDS011;32338;50.430;6.806;2023-02-28T16:57:35;22.30;;;16.98;;
46613;SDS011;32338;50.430;6.806;2023-02-28T17:00:03;14.57;;;11.93;;
46613;SDS011;32338;50.430;6.806;2023-02-28T17:02:31;4.90;;;4.10;;
46613;SDS011;32338;50.430;6.806;2023-02-28T17:04:57;4.43;;;3.22;;
46613;SDS011;32338;50.430;6.806;2023-02-28T17:07:25;5.70;;;3.60;;
46613;SDS011;32338;50.430;6.806;2023-02-28T17:09:52;3.50;;;2.42;;
46613;SDS011;32338;50.430;6.806;2023-02-28T17:12:19;3.55;;;2.92;;
46613;SDS011;32338;50.430;6.806;2023-02-28T17:14:45;2.90;;;2.55;;
46613;SDS011;32338;50.430;6.806;2023-02-28T17:17:14;3.22;;;2.92;;
46613;SDS011;32338;50.430;6.806;2023-02-28T17:19:43;4.60;;;2.78;;
46613;SDS011;32338;50.430;6.806;2023-02-28T17:22:10;7.25;;;4.30;;
46613;SDS011;32338;50.430;6.806;2023-02-28T17:24:38;3.63;;;3.05;;
46613;SDS011;32338;50.430;6.806;2023-02-28T17:27:05;3.70;;;3.10;;
46613;SDS011;32338;50.430;6.806;2023-02-28T17:29:33;4.32;;;3.03;;
46613;SDS011;32338;50.430;6.806;2023-02-28T17:31:59;9.40;;;3.20;;
46613;SDS011;32338;50.430;6.806;2023-02-28T17:34:26;7.65;;;2.88;;
46613;SDS011;32338;50.430;6.806;2023-02-28T17:36:53;4.03;;;3.17;;
46613;SDS011;32338;50.430;6.806;2023-02-28T17:39:19;3.25;;;2.95;;
46613;SDS011;32338;50.430;6.806;2023-02-28T17:41:50;3.47;;;2.80;;
46613;SDS011;32338;50.430;6.806;2023-02-28T17:44:17;3.03;;;2.60;;
46613;SDS011;32338;50.430;6.806;2023-02-28T17:46:44;3.38;;;2.50;;
46613;SDS011;32338;50.430;6.806;2023-02-28T17:49:11;5.13;;;3.13;;
46613;SDS011;32338;50.430;6.806;2023-02-28T17:51:38;3.33;;;2.45;;
46613;SDS011;32338;50.430;6.806;2023-02-28T17:54:05;4.30;;;2.50;;
46613;SDS011;32338;50.430;6.806;2023-02-28T17:56:31;4.07;;;2.30;;
46613;SDS011;32338;50.430;6.806;2023-02-28T17:58:59;2.38;;;2.10;;
46613;SDS011;32338;50.430;6.806;2023-02-28T18:01:26;3.72;;;2.00;;
46613;SDS011;32338;50.430;6.806;2023-02-28T18:03:53;3.83;;;2.30;;
46613;SDS011;32338;50.430;6.806;2023-02-28T18:06:21;3.35;;;2.90;;
46613;SDS011;32338;50.430;6.806;2023-02-28T18:08:50;6.85;;;4.35;;
46613;SDS011;32338;50.430;6.806;2023-02-28T18:11:17;7.63;;;5.13;;
46613;SDS011;32338;50.430;6.806;2023-02-28T18:13:45;9.57;;;4.47;;
46613;SDS011;32338;50.430;6.806;2023-02-28T18:16:13;10.02;;;5.50;;
46613;SDS011;32338;50.430;6.806;2023-02-28T18:18:41;9.55;;;5.45;;
46613;SDS011;32338;50.430;6.806;2023-02-28T18:22:21;7.47;;;4.63;;
46613;SDS011;32338;50.430;6.806;2023-02-28T18:24:48;7.30;;;4.50;;
46613;SDS011;32338;50.430;6.806;2023-02-28T18:27:15;5.10;;;2.42;;
46613;SDS011;32338;50.430;6.806;2023-02-28T18:29:41;5.55;;;2.90;;
46613;SDS011;32338;50.430;6.806;2023-02-28T18:32:08;6.72;;;3.67;;
46613;SDS011;32338;50.430;6.806;2023-02-28T18:34:35;6.05;;;3.13;;
46613;SDS011;32338;50.430;6.806;2023-02-28T18:37:01;4.68;;;3.30;;
46613;SDS011;32338;50.430;6.806;2023-02-28T18:39:30;4.28;;;3.40;;
46613;SDS011;32338;50.430;6.806;2023-02-28T18:41:57;3.92;;;2.90;;